Time;durP1;ratioP1;P1;durP2;ratioP2;P2;SDS_P1;SDS_P2;PMS_P1;PMS_P2;Temp;Humidity;BMP_temperature;BMP_pressure;BME280_temperature;BME280_humidity;BME280_pressure;Samples;Min_cycle;Max_cycle;Signal;HPM_P1;HPM_P2
2021/09/03 00:00:44;;;;;;;19.10;12.25;;;16.30;99.80;;;;;;5024248;28;20457;-72
2021/09/03 00:03:09;;;;;;;21.58;12.27;;;16.20;99.80;;;;;;5034007;28;20060;-72
2021/09/03 00:05:36;;;;;;;18.90;11.45;;;16.20;99.90;;;;;;5040575;28;20028;-72
2021/09/03 00:08:01;;;;;;;21.00;11.95;;;16.20;99.90;;;;;;5049660;28;20018;-72
2021/09/03 00:10:27;;;;;;;19.70;11.90;;;16.30;99.90;;;;;;5033286;28;20088;-72
2021/09/03 00:12:53;;;;;;;18.67;11.18;;;16.30;99.90;;;;;;5033534;28;20043;-72
2021/09/03 00:15:19;;;;;;;21.15;12.43;;;16.20;99.90;;;;;;5037588;28;20028;-72
2021/09/03 00:17:45;;;;;;;18.40;11.13;;;16.20;99.90;;;;;;5053015;28;20225;-72
2021/09/03 00:20:12;;;;;;;21.27;11.50;;;16.20;99.90;;;;;;5036118;28;20025;-72
2021/09/03 00:22:38;;;;;;;19.08;12.27;;;16.30;99.90;;;;;;5053899;28;20477;-71
2021/09/03 00:25:05;;;;;;;19.55;12.55;;;16.20;99.90;;;;;;5035762;28;20029;-71
2021/09/03 00:27:31;;;;;;;16.92;11.00;;;16.30;99.90;;;;;;5052818;28;20369;-71
2021/09/03 00:29:56;;;;;;;20.05;11.15;;;16.20;99.90;;;;;;5036740;28;20075;-71
2021/09/03 00:32:22;;;;;;;17.67;10.75;;;16.30;99.90;;;;;;5053848;28;20115;-71
2021/09/03 00:34:47;;;;;;;22.05;11.93;;;16.30;99.90;;;;;;5036205;28;20482;-71
2021/09/03 00:37:14;;;;;;;20.63;12.02;;;16.20;99.90;;;;;;5033843;28;20560;-71
2021/09/03 00:39:39;;;;;;;18.73;11.48;;;16.30;99.90;;;;;;5031880;28;20116;-71
2021/09/03 00:42:10;;;;;;;22.88;11.23;;;16.20;99.90;;;;;;5040463;28;20508;-72
2021/09/03 00:44:35;;;;;;;18.00;11.93;;;16.30;99.90;;;;;;5033229;28;20021;-72
2021/09/03 00:47:01;;;;;;;19.80;10.52;;;16.20;99.90;;;;;;5051976;28;20029;-72
2021/09/03 00:49:26;;;;;;;20.10;11.93;;;16.20;99.90;;;;;;5038431;28;20052;-72
2021/09/03 00:51:52;;;;;;;19.35;11.65;;;16.20;99.90;;;;;;5048104;28;20489;-72
2021/09/03 00:54:17;;;;;;;19.33;11.93;;;16.20;99.90;;;;;;5031320;28;20034;-73
2021/09/03 00:56:45;;;;;;;19.27;11.23;;;16.10;99.90;;;;;;5049196;28;20448;-72
2021/09/03 00:59:11;;;;;;;20.63;10.95;;;16.20;99.90;;;;;;5036704;28;20100;-72
2021/09/03 01:01:36;;;;;;;18.90;11.07;;;16.20;99.90;;;;;;5024603;28;20171;-72
2021/09/03 01:04:02;;;;;;;21.10;12.63;;;16.20;99.90;;;;;;5024100;28;20034;-72
2021/09/03 01:06:28;;;;;;;17.88;11.38;;;16.20;99.90;;;;;;5036820;28;20021;-72
2021/09/03 01:08:53;;;;;;;21.95;11.13;;;16.10;99.90;;;;;;5031568;28;20088;-72
2021/09/03 01:11:19;;;;;;;19.90;11.05;;;16.20;99.90;;;;;;5031658;28;20056;-72
2021/09/03 01:13:44;;;;;;;20.75;10.23;;;16.20;99.90;;;;;;5033695;28;20036;-72
2021/09/03 01:16:10;;;;;;;16.48;10.65;;;16.20;99.90;;;;;;5025182;28;20037;-72
2021/09/03 01:18:35;;;;;;;15.90;11.02;;;16.20;99.90;;;;;;5013676;28;20021;-73
2021/09/03 01:21:01;;;;;;;20.85;11.00;;;16.20;99.90;;;;;;5023951;28;20571;-72
2021/09/03 01:23:26;;;;;;;17.25;10.68;;;16.20;99.90;;;;;;5032304;28;20025;-73
2021/09/03 01:25:52;;;;;;;19.42;10.93;;;16.10;99.90;;;;;;5032729;28;20401;-72
2021/09/03 01:28:17;;;;;;;19.42;11.38;;;16.20;99.90;;;;;;5033535;28;20021;-72
2021/09/03 01:30:43;;;;;;;15.25;10.20;;;16.10;99.90;;;;;;5031507;28;20021;-73
2021/09/03 01:33:08;;;;;;;16.58;10.30;;;16.20;99.90;;;;;;5033350;28;20040;-71
2021/09/03 01:35:34;;;;;;;18.40;10.48;;;16.10;99.90;;;;;;5030176;28;20025;-72
2021/09/03 01:38:00;;;;;;;22.17;11.00;;;16.10;99.90;;;;;;5032139;28;20026;-71
2021/09/03 01:40:26;;;;;;;20.40;11.82;;;16.10;99.90;;;;;;5031649;28;20025;-71
2021/09/03 01:42:51;;;;;;;21.65;11.57;;;16.10;99.90;;;;;;5044726;28;20029;-71
2021/09/03 01:45:17;;;;;;;17.05;9.82;;;16.10;99.90;;;;;;5050629;28;20473;-72
2021/09/03 01:47:42;;;;;;;19.42;10.52;;;16.10;99.90;;;;;;5040200;28;20075;-72
2021/09/03 01:50:08;;;;;;;19.83;11.73;;;16.00;99.90;;;;;;5032456;28;20092;-72
2021/09/03 01:52:33;;;;;;;17.45;10.10;;;16.00;99.90;;;;;;5030427;28;20029;-72
2021/09/03 01:54:59;;;;;;;16.05;10.63;;;16.00;99.90;;;;;;5031137;28;20373;-71
2021/09/03 01:57:24;;;;;;;15.32;9.60;;;16.00;99.90;;;;;;5030772;28;20033;-71
2021/09/03 01:59:50;;;;;;;15.85;10.07;;;16.00;99.90;;;;;;5033086;28;20423;-71
2021/09/03 02:02:15;;;;;;;17.88;10.40;;;16.00;99.90;;;;;;5042164;28;20044;-71
2021/09/03 02:04:41;;;;;;;15.43;10.57;;;16.00;99.90;;;;;;5032859;28;20025;-71
2021/09/03 02:07:06;;;;;;;15.35;9.27;;;16.00;99.90;;;;;;5030170;28;20033;-72
2021/09/03 02:09:32;;;;;;;16.25;10.25;;;16.00;99.90;;;;;;5031362;28;20342;-71
2021/09/03 02:11:57;;;;;;;15.90;9.40;;;16.00;99.90;;;;;;5030734;28;20029;-71
2021/09/03 02:14:23;;;;;;;17.40;9.55;;;16.00;99.90;;;;;;5052174;28;20016;-72
2021/09/03 02:16:48;;;;;;;17.17;10.23;;;16.00;99.90;;;;;;5030776;28;20026;-71
2021/09/03 02:19:14;;;;;;;19.33;11.13;;;16.00;99.90;;;;;;5032025;28;20026;-71
2021/09/03 02:21:41;;;;;;;18.42;9.43;;;16.00;99.90;;;;;;5036449;28;20497;-71
2021/09/03 02:24:07;;;;;;;16.65;9.55;;;16.00;99.90;;;;;;5049803;28;20017;-72
2021/09/03 02:26:32;;;;;;;17.13;9.88;;;16.00;99.90;;;;;;5036551;28;20035;-71
2021/09/03 02:28:58;;;;;;;17.40;9.95;;;16.00;99.90;;;;;;5038069;28;20021;-71
2021/09/03 02:31:23;;;;;;;17.00;10.30;;;16.00;99.90;;;;;;5030379;28;20055;-71
2021/09/03 02:33:49;;;;;;;17.05;10.50;;;16.00;99.90;;;;;;5030960;28;20080;-71
2021/09/03 02:36:15;;;;;;;18.67;9.68;;;16.00;99.90;;;;;;5033098;28;20051;-71
2021/09/03 02:38:40;;;;;;;16.73;9.55;;;16.00;99.90;;;;;;5040895;28;20032;-71
2021/09/03 02:41:06;;;;;;;20.73;9.88;;;16.00;99.90;;;;;;5032181;28;20037;-72
2021/09/03 02:43:31;;;;;;;16.13;10.15;;;16.00;99.90;;;;;;5038116;28;20389;-72
2021/09/03 02:45:57;;;;;;;15.98;10.13;;;16.00;99.90;;;;;;5030226;28;20382;-72
2021/09/03 02:48:22;;;;;;;20.88;10.10;;;16.00;99.90;;;;;;5040517;28;20500;-72
2021/09/03 02:50:48;;;;;;;19.50;10.23;;;15.90;99.90;;;;;;5030190;28;20076;-72
2021/09/03 02:53:13;;;;;;;16.17;10.50;;;16.00;99.90;;;;;;5039518;28;20029;-72
2021/09/03 02:55:39;;;;;;;19.65;10.15;;;16.00;99.90;;;;;;5030260;28;20041;-73
2021/09/03 02:58:04;;;;;;;15.90;9.10;;;15.90;99.90;;;;;;5029841;28;20069;-72
2021/09/03 03:00:30;;;;;;;12.88;9.05;;;15.90;99.90;;;;;;5029417;28;20067;-72
2021/09/03 03:02:58;;;;;;;17.27;9.57;;;15.90;99.90;;;;;;5030947;28;20032;-72
2021/09/03 03:05:23;;;;;;;14.30;9.07;;;15.90;99.90;;;;;;5030798;28;20033;-72
2021/09/03 03:07:49;;;;;;;17.60;9.68;;;15.90;99.90;;;;;;5030092;28;20355;-72
2021/09/03 03:10:15;;;;;;;16.65;9.48;;;15.90;99.90;;;;;;5030386;28;20112;-72
2021/09/03 03:12:40;;;;;;;17.50;10.05;;;15.90;99.90;;;;;;5033179;28;20029;-72
2021/09/03 03:15:07;;;;;;;19.15;10.35;;;15.90;99.90;;;;;;5031014;28;20018;-73
2021/09/03 03:17:33;;;;;;;14.68;9.70;;;15.80;99.90;;;;;;5029082;28;20029;-72
2021/09/03 03:19:59;;;;;;;15.65;10.52;;;15.80;99.90;;;;;;5031098;28;20021;-73
2021/09/03 03:22:24;;;;;;;16.85;9.77;;;15.80;99.90;;;;;;5029030;28;20398;-72
2021/09/03 03:24:50;;;;;;;16.17;10.10;;;15.80;99.90;;;;;;5031011;28;20025;-72
2021/09/03 03:27:15;;;;;;;15.55;9.77;;;15.80;99.90;;;;;;5027969;28;20065;-72
2021/09/03 03:29:41;;;;;;;16.23;9.70;;;15.70;99.90;;;;;;5031195;28;20018;-72
2021/09/03 03:32:06;;;;;;;18.25;9.55;;;15.70;99.90;;;;;;5031839;28;20029;-72
2021/09/03 03:34:32;;;;;;;16.63;10.50;;;15.70;99.90;;;;;;5035433;28;20117;-71
2021/09/03 03:36:57;;;;;;;16.67;10.00;;;15.70;99.90;;;;;;5041813;28;20035;-73
2021/09/03 03:39:23;;;;;;;15.90;9.02;;;15.70;99.90;;;;;;5045943;28;20108;-71
2021/09/03 03:41:50;;;;;;;16.30;9.80;;;15.70;99.90;;;;;;5033269;28;20044;-71
2021/09/03 03:44:15;;;;;;;15.88;9.82;;;15.70;99.90;;;;;;5034904;28;20041;-71
2021/09/03 03:46:41;;;;;;;17.30;10.65;;;15.70;99.90;;;;;;5038688;28;20099;-71
2021/09/03 03:49:06;;;;;;;14.63;8.57;;;15.70;99.90;;;;;;5046796;28;20021;-71
2021/09/03 03:51:32;;;;;;;16.77;9.55;;;15.70;99.90;;;;;;5044370;28;20425;-71
2021/09/03 03:53:57;;;;;;;17.80;9.85;;;15.60;99.90;;;;;;5034146;28;20033;-71
2021/09/03 03:56:22;;;;;;;17.13;10.00;;;15.60;99.90;;;;;;5037200;28;20140;-71
2021/09/03 03:58:48;;;;;;;18.17;10.15;;;15.60;99.90;;;;;;5051828;28;20030;-71
2021/09/03 04:01:14;;;;;;;14.82;9.60;;;15.70;99.90;;;;;;5031662;28;20029;-71
2021/09/03 04:03:39;;;;;;;16.38;10.48;;;15.60;99.90;;;;;;5034759;28;20440;-71
2021/09/03 04:06:05;;;;;;;15.85;9.30;;;15.60;99.90;;;;;;5034786;28;20056;-71
2021/09/03 04:08:31;;;;;;;15.70;9.45;;;15.60;99.90;;;;;;5033682;28;20028;-71
2021/09/03 04:10:56;;;;;;;14.40;9.48;;;15.60;99.90;;;;;;5033820;28;20062;-71
2021/09/03 04:13:22;;;;;;;15.75;9.82;;;15.50;99.90;;;;;;5033724;28;20037;-72
2021/09/03 04:15:47;;;;;;;15.20;8.55;;;15.50;99.90;;;;;;5033496;28;20040;-71
2021/09/03 04:18:13;;;;;;;18.08;9.20;;;15.50;99.90;;;;;;5032870;28;20544;-71
2021/09/03 04:20:38;;;;;;;14.93;9.60;;;15.50;99.90;;;;;;5033315;28;20032;-72
2021/09/03 04:23:04;;;;;;;14.95;8.95;;;15.50;99.90;;;;;;5032497;28;20033;-71
2021/09/03 04:25:29;;;;;;;15.63;10.32;;;15.50;99.90;;;;;;5036325;28;20036;-71
2021/09/03 04:27:55;;;;;;;15.98;9.18;;;15.50;99.90;;;;;;5048207;28;20478;-72
2021/09/03 04:30:20;;;;;;;16.42;10.13;;;15.50;99.90;;;;;;5034188;28;20378;-71
2021/09/03 04:32:46;;;;;;;17.15;9.95;;;15.50;99.90;;;;;;5032682;28;20036;-72
2021/09/03 04:35:12;;;;;;;15.65;9.68;;;15.50;99.90;;;;;;5034002;28;20025;-75
2021/09/03 04:37:44;;;;;;;17.40;9.95;;;15.50;99.90;;;;;;5041784;28;20029;-71
2021/09/03 04:40:11;;;;;;;15.93;9.25;;;15.50;99.90;;;;;;5033632;28;20089;-72
2021/09/03 04:42:37;;;;;;;14.40;9.05;;;15.50;99.90;;;;;;5031098;28;20033;-71
2021/09/03 04:45:04;;;;;;;15.18;9.48;;;15.50;99.90;;;;;;5033764;28;20091;-72
2021/09/03 04:47:29;;;;;;;13.02;8.43;;;15.50;99.90;;;;;;5031293;28;20038;-71
2021/09/03 04:49:54;;;;;;;18.13;10.18;;;15.50;99.90;;;;;;5032533;28;20027;-71
2021/09/03 04:52:20;;;;;;;13.30;8.93;;;15.50;99.90;;;;;;5031851;28;20515;-71
2021/09/03 04:54:45;;;;;;;21.13;11.50;;;15.50;99.90;;;;;;5038829;28;20057;-72
2021/09/03 04:57:11;;;;;;;16.23;9.80;;;15.50;99.90;;;;;;5039653;28;20388;-71
2021/09/03 04:59:36;;;;;;;16.15;9.45;;;15.50;99.90;;;;;;5033875;28;20179;-72
2021/09/03 05:02:02;;;;;;;16.23;9.88;;;15.50;99.90;;;;;;5028853;28;20029;-71
2021/09/03 05:04:28;;;;;;;13.40;8.90;;;15.60;99.90;;;;;;5032708;28;20088;-71
2021/09/03 05:06:53;;;;;;;18.60;10.55;;;15.60;99.90;;;;;;5036326;28;20028;-71
2021/09/03 05:09:18;;;;;;;14.85;9.80;;;15.60;99.90;;;;;;5033647;28;20022;-71
2021/09/03 05:11:44;;;;;;;19.55;10.05;;;15.60;99.90;;;;;;5032089;28;20029;-71
2021/09/03 05:14:09;;;;;;;17.35;10.63;;;15.60;99.90;;;;;;5033526;28;20517;-72
2021/09/03 05:16:35;;;;;;;17.67;10.52;;;15.70;99.90;;;;;;5037773;28;20070;-72
2021/09/03 05:19:00;;;;;;;15.10;9.30;;;15.70;99.90;;;;;;5053754;28;20464;-72
2021/09/03 05:21:26;;;;;;;18.70;9.75;;;15.70;99.90;;;;;;5039870;28;20048;-72
2021/09/03 05:23:51;;;;;;;17.67;9.82;;;15.70;99.90;;;;;;5033547;28;20462;-71
2021/09/03 05:26:17;;;;;;;14.10;9.68;;;15.80;99.90;;;;;;5030469;28;20025;-72
2021/09/03 05:28:42;;;;;;;15.05;10.55;;;15.80;99.90;;;;;;5033576;28;20033;-71
2021/09/03 05:31:08;;;;;;;16.90;9.98;;;15.80;99.90;;;;;;5032323;28;20104;-71
2021/09/03 05:33:33;;;;;;;17.50;10.30;;;15.80;99.90;;;;;;5053071;28;20086;-71
2021/09/03 05:35:59;;;;;;;16.10;9.48;;;15.90;99.90;;;;;;5038083;28;20026;-71
2021/09/03 05:38:24;;;;;;;17.38;10.68;;;15.90;99.90;;;;;;5033114;28;20040;-71
2021/09/03 05:40:51;;;;;;;19.08;10.43;;;15.90;99.90;;;;;;5022110;28;20026;-71
2021/09/03 05:43:20;;;;;;;13.73;9.80;;;15.90;99.90;;;;;;5051586;28;20424;-71
2021/09/03 05:45:46;;;;;;;19.30;10.48;;;16.00;99.90;;;;;;5039621;28;20029;-71
2021/09/03 05:48:11;;;;;;;15.57;10.20;;;16.00;99.90;;;;;;5050047;28;20033;-71
2021/09/03 05:50:37;;;;;;;17.67;9.93;;;16.10;99.90;;;;;;5039319;28;20474;-71
2021/09/03 05:53:02;;;;;;;15.88;10.60;;;16.10;99.90;;;;;;5031100;28;20026;-72
2021/09/03 05:55:28;;;;;;;15.32;10.50;;;16.10;99.90;;;;;;5031486;28;20061;-72
2021/09/03 05:57:54;;;;;;;15.15;9.68;;;16.10;99.90;;;;;;5031370;28;20076;-71
2021/09/03 06:00:21;;;;;;;16.65;9.85;;;16.20;99.90;;;;;;5030826;28;20041;-73
2021/09/03 06:02:46;;;;;;;14.98;9.82;;;16.20;99.90;;;;;;5031841;28;20033;-72
2021/09/03 06:05:12;;;;;;;16.00;9.90;;;16.20;99.90;;;;;;5032013;28;20056;-74
2021/09/03 06:07:37;;;;;;;18.60;10.77;;;16.30;99.90;;;;;;5029236;28;20316;-77
2021/09/03 06:10:05;;;;;;;15.88;10.27;;;16.30;99.90;;;;;;5032193;28;20033;-71
2021/09/03 06:12:31;;;;;;;16.83;11.43;;;16.30;99.90;;;;;;5031250;28;20033;-74
2021/09/03 06:14:56;;;;;;;18.15;11.27;;;16.40;99.90;;;;;;5031923;28;20470;-73
2021/09/03 06:17:22;;;;;;;16.05;10.63;;;16.40;99.90;;;;;;5036077;28;20032;-74
2021/09/03 06:19:47;;;;;;;21.80;12.02;;;16.50;99.90;;;;;;5039438;28;20032;-74
2021/09/03 06:22:13;;;;;;;17.60;11.88;;;16.50;99.90;;;;;;5044372;28;20040;-74
2021/09/03 06:24:39;;;;;;;23.33;12.45;;;16.60;99.90;;;;;;5021226;28;20471;-74
2021/09/03 06:27:08;;;;;;;17.83;11.63;;;16.60;99.90;;;;;;5022402;28;20038;-73
2021/09/03 06:29:37;;;;;;;17.17;11.85;;;16.60;99.90;;;;;;5031506;28;20385;-72
2021/09/03 06:32:06;;;;;;;22.05;11.45;;;16.60;99.90;;;;;;5039582;28;20114;-72
2021/09/03 06:34:32;;;;;;;19.08;11.02;;;16.70;99.90;;;;;;5030577;28;20061;-72
2021/09/03 06:36:58;;;;;;;20.45;12.07;;;16.70;99.90;;;;;;5038907;28;20105;-71
2021/09/03 06:39:23;;;;;;;20.23;11.82;;;16.70;99.90;;;;;;5036992;28;20032;-70
2021/09/03 06:41:49;;;;;;;26.40;11.90;;;16.80;99.90;;;;;;5030544;28;20477;-71
2021/09/03 06:44:14;;;;;;;16.45;12.23;;;16.80;99.90;;;;;;5028308;28;20024;-72
2021/09/03 06:46:40;;;;;;;20.08;11.52;;;16.80;99.90;;;;;;5038285;28;20478;-70
2021/09/03 06:49:05;;;;;;;20.60;10.88;;;16.90;99.90;;;;;;5037995;28;20025;-70
2021/09/03 06:51:31;;;;;;;19.02;11.75;;;17.00;99.90;;;;;;5024930;28;20068;-70
2021/09/03 06:53:56;;;;;;;17.55;11.27;;;17.00;99.90;;;;;;5027011;28;20416;-71
2021/09/03 06:56:22;;;;;;;16.52;11.43;;;17.10;99.90;;;;;;5035809;28;20043;-71
2021/09/03 06:58:47;;;;;;;16.15;10.70;;;17.10;99.90;;;;;;5029459;28;20014;-71
2021/09/03 07:01:13;;;;;;;19.15;12.13;;;17.20;99.90;;;;;;5035908;28;20109;-71
2021/09/03 07:03:38;;;;;;;18.13;11.65;;;17.10;99.90;;;;;;5034068;28;20020;-72
2021/09/03 07:06:04;;;;;;;17.45;11.27;;;17.20;99.90;;;;;;5030693;28;20496;-74
2021/09/03 07:08:29;;;;;;;16.42;11.70;;;17.20;99.90;;;;;;5044091;28;20119;-74
2021/09/03 07:10:55;;;;;;;20.52;11.55;;;17.30;99.90;;;;;;5051831;28;20025;-74
2021/09/03 07:13:20;;;;;;;15.75;10.68;;;17.40;99.90;;;;;;5035081;28;20113;-74
2021/09/03 07:15:46;;;;;;;19.27;11.15;;;17.40;99.80;;;;;;5037625;28;20461;-75
2021/09/03 07:18:11;;;;;;;17.77;10.77;;;17.50;99.80;;;;;;5043532;28;20021;-74
2021/09/03 07:20:37;;;;;;;22.45;11.02;;;17.50;99.70;;;;;;5038821;28;20025;-74
2021/09/03 07:23:02;;;;;;;16.23;11.38;;;17.60;99.70;;;;;;5038105;28;20017;-74
2021/09/03 07:25:28;;;;;;;17.98;10.10;;;17.60;99.60;;;;;;5031007;28;20033;-73
2021/09/03 07:27:53;;;;;;;25.75;10.93;;;17.70;99.70;;;;;;5032297;28;20034;-73
2021/09/03 07:30:19;;;;;;;19.10;11.10;;;17.70;99.60;;;;;;5030390;28;20283;-74
2021/09/03 07:32:45;;;;;;;16.10;9.73;;;17.80;99.60;;;;;;5028821;28;20234;-74
2021/09/03 07:35:12;;;;;;;17.77;9.73;;;17.80;99.50;;;;;;5031222;28;20497;-74
2021/09/03 07:37:40;;;;;;;18.65;10.60;;;17.90;99.60;;;;;;5031447;28;20386;-74
2021/09/03 07:40:05;;;;;;;15.20;9.48;;;17.90;99.50;;;;;;5031116;28;20030;-74
2021/09/03 07:42:32;;;;;;;16.30;10.38;;;18.00;99.40;;;;;;5028474;28;20489;-74
2021/09/03 07:44:58;;;;;;;18.08;8.70;;;18.10;99.30;;;;;;5029376;28;20387;-74
2021/09/03 07:47:23;;;;;;;13.25;9.20;;;18.10;99.30;;;;;;5044449;28;20037;-74
2021/09/03 07:49:49;;;;;;;13.85;9.02;;;18.20;99.20;;;;;;5051368;28;20032;-73
2021/09/03 07:52:14;;;;;;;18.42;9.63;;;18.30;99.10;;;;;;5034215;28;20686;-72
2021/09/03 07:54:40;;;;;;;16.42;8.75;;;18.30;99.00;;;;;;5045773;28;20161;-72
2021/09/03 07:57:05;;;;;;;17.95;9.82;;;18.40;98.90;;;;;;5025509;28;20458;-73
2021/09/03 07:59:31;;;;;;;14.40;10.00;;;18.40;98.70;;;;;;5033535;28;20033;-73
2021/09/03 08:01:57;;;;;;;16.13;9.15;;;18.50;98.70;;;;;;5034666;28;20069;-72
2021/09/03 08:04:22;;;;;;;19.70;10.25;;;18.50;98.50;;;;;;5031550;28;20021;-72
2021/09/03 08:06:48;;;;;;;15.73;9.90;;;18.60;98.50;;;;;;5024093;28;20022;-72
2021/09/03 08:09:13;;;;;;;14.57;9.02;;;18.60;98.20;;;;;;5035309;28;20032;-72
2021/09/03 08:11:39;;;;;;;16.92;9.90;;;18.60;98.30;;;;;;5032022;28;20033;-73
2021/09/03 08:14:04;;;;;;;15.88;9.73;;;18.60;98.30;;;;;;5030940;28;20030;-72
2021/09/03 08:16:30;;;;;;;13.45;9.13;;;18.60;98.20;;;;;;5028898;28;20060;-72
2021/09/03 08:18:55;;;;;;;14.15;9.48;;;18.70;98.20;;;;;;5031902;28;20033;-73
2021/09/03 08:21:21;;;;;;;15.98;9.80;;;18.70;97.90;;;;;;5038869;28;20168;-73
2021/09/03 08:23:46;;;;;;;14.15;8.88;;;18.70;98.00;;;;;;5039098;28;20477;-73
2021/09/03 08:26:12;;;;;;;13.70;9.32;;;18.80;98.00;;;;;;5037057;28;20112;-72
2021/09/03 08:28:37;;;;;;;19.60;10.30;;;18.90;98.00;;;;;;5039228;28;20037;-73
2021/09/03 08:31:02;;;;;;;19.48;9.85;;;19.00;97.80;;;;;;5039778;28;20032;-73
2021/09/03 08:33:28;;;;;;;15.18;10.13;;;19.00;97.60;;;;;;5040967;28;20060;-73
2021/09/03 08:35:53;;;;;;;13.95;10.48;;;19.10;97.50;;;;;;5041994;28;20021;-73
2021/09/03 08:38:19;;;;;;;19.55;10.02;;;19.10;97.40;;;;;;5039602;28;20088;-72
2021/09/03 08:40:44;;;;;;;14.35;10.05;;;19.10;97.20;;;;;;5036674;28;20317;-73
2021/09/03 08:43:10;;;;;;;15.10;9.98;;;19.20;97.10;;;;;;5036464;28;20040;-73
2021/09/03 08:45:37;;;;;;;17.25;11.88;;;19.20;97.00;;;;;;5036043;28;20052;-73
2021/09/03 08:48:03;;;;;;;15.98;9.60;;;19.30;96.90;;;;;;5043009;28;20036;-73
2021/09/03 08:50:28;;;;;;;15.13;8.90;;;19.30;96.90;;;;;;5043373;28;20075;-73
2021/09/03 08:52:55;;;;;;;19.65;9.82;;;19.30;96.80;;;;;;5032241;28;20765;-73
2021/09/03 08:55:21;;;;;;;17.48;9.73;;;19.40;96.70;;;;;;5042226;28;20052;-73
2021/09/03 08:57:47;;;;;;;20.10;9.55;;;19.40;96.50;;;;;;5033485;28;20029;-74
2021/09/03 09:00:26;;;;;;;13.82;9.35;;;19.50;96.50;;;;;;5038668;28;20405;-72
2021/09/03 09:02:59;;;;;;;17.48;9.85;;;19.50;96.50;;;;;;5042774;28;20040;-72
2021/09/03 09:05:43;;;;;;;17.27;10.77;;;19.50;96.30;;;;;;5038367;28;20045;-75
2021/09/03 09:08:08;;;;;;;12.83;9.33;;;19.60;96.30;;;;;;5038900;28;20034;-74
2021/09/03 09:10:34;;;;;;;15.30;9.15;;;19.60;96.20;;;;;;5042085;28;20042;-74
2021/09/03 09:12:59;;;;;;;14.98;9.18;;;19.60;96.10;;;;;;5042764;28;20032;-75
2021/09/03 09:15:25;;;;;;;15.63;9.07;;;19.70;95.90;;;;;;5036193;28;20394;-74
2021/09/03 09:17:51;;;;;;;12.20;8.30;;;19.70;96.00;;;;;;5030841;28;20105;-71
2021/09/03 09:20:17;;;;;;;12.73;8.20;;;19.80;95.90;;;;;;5028896;28;20037;-77
2021/09/03 09:23:03;;;;;;;14.35;9.40;;;19.90;95.90;;;;;;5041772;28;20093;-74
2021/09/03 09:25:34;;;;;;;12.95;8.38;;;19.90;95.80;;;;;;5030138;28;20063;-71
2021/09/03 09:28:20;;;;;;;16.55;8.82;;;20.00;95.70;;;;;;5031116;28;20025;-72
2021/09/03 09:30:47;;;;;;;12.45;8.35;;;20.00;95.60;;;;;;5039170;28;20026;-71
2021/09/03 09:33:20;;;;;;;12.93;9.15;;;20.10;95.40;;;;;;5031200;28;20030;-72
2021/09/03 09:35:54;;;;;;;14.53;8.60;;;20.10;95.30;;;;;;5030637;28;20075;-72
2021/09/03 09:38:25;;;;;;;11.55;8.13;;;20.20;95.40;;;;;;5038422;28;20108;-73
2021/09/03 09:40:59;;;;;;;11.13;7.63;;;20.20;95.20;;;;;;5028705;28;20037;-73
2021/09/03 09:43:31;;;;;;;11.73;7.45;;;20.30;95.10;;;;;;5035412;28;20441;-72
2021/09/03 09:46:25;;;;;;;13.15;8.35;;;20.30;95.10;;;;;;5037895;28;20037;-73
2021/09/03 09:48:51;;;;;;;13.38;8.10;;;20.40;95.00;;;;;;5032978;28;20100;-73
2021/09/03 09:51:25;;;;;;;11.13;7.75;;;20.40;94.90;;;;;;5025802;28;20025;-72
2021/09/03 09:54:09;;;;;;;11.50;6.63;;;20.50;94.90;;;;;;5043855;28;20043;-72
2021/09/03 09:56:37;;;;;;;12.27;8.90;;;20.50;94.70;;;;;;5031894;28;20058;-72
2021/09/03 09:59:06;;;;;;;14.23;8.35;;;20.60;94.40;;;;;;5033340;28;20505;-72
2021/09/03 10:01:36;;;;;;;12.18;7.78;;;20.60;94.40;;;;;;5041525;28;20048;-72
2021/09/03 10:04:07;;;;;;;13.15;8.18;;;20.70;94.40;;;;;;5049850;28;20032;-73
2021/09/03 10:06:34;;;;;;;15.57;7.47;;;20.80;94.30;;;;;;5032851;28;20089;-73
2021/09/03 10:09:01;;;;;;;14.15;7.13;;;20.80;94.20;;;;;;5039811;28;20063;-73
2021/09/03 10:11:26;;;;;;;13.45;7.20;;;20.90;94.10;;;;;;5031773;28;20029;-72
2021/09/03 10:13:54;;;;;;;10.07;7.15;;;20.90;94.00;;;;;;5050441;28;20035;-73
2021/09/03 10:16:20;;;;;;;13.57;7.53;;;21.00;94.10;;;;;;5027488;28;20033;-72
2021/09/03 10:18:48;;;;;;;13.57;7.70;;;21.10;94.00;;;;;;5039835;28;20037;-72
2021/09/03 10:21:14;;;;;;;8.80;6.70;;;21.20;93.80;;;;;;5035924;28;20037;-74
2021/09/03 10:23:55;;;;;;;9.75;7.10;;;21.20;93.90;;;;;;5045412;28;20056;-72
2021/09/03 10:26:36;;;;;;;12.82;7.25;;;21.30;93.80;;;;;;5043106;28;20037;-71
2021/09/03 10:29:26;;;;;;;11.50;6.70;;;21.40;93.60;;;;;;5043522;28;20081;-72
2021/09/03 10:32:07;;;;;;;10.35;7.22;;;21.40;93.30;;;;;;5040062;28;20048;-72
2021/09/03 10:34:38;;;;;;;11.45;7.07;;;21.50;93.30;;;;;;5037454;28;20026;-72
2021/09/03 10:37:18;;;;;;;11.85;6.72;;;21.60;93.10;;;;;;5036011;28;20030;-72
2021/09/03 10:39:59;;;;;;;10.50;6.47;;;21.60;93.00;;;;;;5037922;28;20026;-72
2021/09/03 10:42:45;;;;;;;13.10;6.75;;;21.60;92.90;;;;;;5040870;28;20056;-71
2021/09/03 10:45:31;;;;;;;8.32;6.20;;;21.70;92.80;;;;;;5040389;28;20048;-72
2021/09/03 10:48:11;;;;;;;10.02;6.30;;;21.80;92.80;;;;;;5031557;28;20031;-72
2021/09/03 10:50:51;;;;;;;10.88;7.00;;;21.80;92.40;;;;;;5031161;28;20080;-72
2021/09/03 10:53:19;;;;;;;10.65;6.95;;;21.90;92.50;;;;;;5030994;28;20039;-72
2021/09/03 10:55:58;;;;;;;9.50;6.65;;;21.90;92.40;;;;;;5029380;28;20485;-72
2021/09/03 10:58:37;;;;;;;9.88;6.82;;;22.00;92.30;;;;;;5024446;28;20123;-72
2021/09/03 11:01:11;;;;;;;12.75;7.35;;;22.00;92.40;;;;;;5029480;28;20033;-72
2021/09/03 11:03:49;;;;;;;10.40;6.60;;;22.10;92.10;;;;;;5021824;28;20029;-71
2021/09/03 11:06:32;;;;;;;9.98;6.70;;;22.10;91.90;;;;;;5039236;28;20597;-72
2021/09/03 11:09:04;;;;;;;11.50;6.07;;;22.20;91.80;;;;;;5029103;28;20060;-71
2021/09/03 11:11:38;;;;;;;9.27;6.05;;;22.20;91.60;;;;;;5021233;28;22782;-71
2021/09/03 11:14:06;;;;;;;10.23;6.65;;;22.30;91.50;;;;;;5034599;28;20029;-72
2021/09/03 11:16:44;;;;;;;10.20;6.53;;;22.30;91.40;;;;;;5031753;28;20033;-72
2021/09/03 11:19:17;;;;;;;11.73;6.78;;;22.30;90.90;;;;;;5038209;28;20025;-71
2021/09/03 11:21:58;;;;;;;11.13;7.10;;;22.30;90.90;;;;;;5033692;28;20499;-71
2021/09/03 11:24:48;;;;;;;7.80;5.55;;;22.30;91.00;;;;;;5040086;28;20053;-72
2021/09/03 11:27:16;;;;;;;12.10;6.20;;;22.40;91.00;;;;;;5048741;28;20025;-71
2021/09/03 11:29:48;;;;;;;11.48;6.70;;;22.40;90.70;;;;;;5027344;28;20026;-72
2021/09/03 11:32:16;;;;;;;9.25;6.28;;;22.50;90.90;;;;;;5033107;28;20032;-72
2021/09/03 11:34:47;;;;;;;11.82;6.75;;;22.50;90.30;;;;;;5031022;28;20036;-72
2021/09/03 11:37:31;;;;;;;10.27;6.47;;;22.50;90.50;;;;;;5037666;28;20429;-72
2021/09/03 11:40:07;;;;;;;7.88;5.95;;;22.60;90.60;;;;;;5025835;28;20030;-72
2021/09/03 11:42:34;;;;;;;9.77;6.50;;;22.70;90.40;;;;;;5034571;28;20052;-72
2021/09/03 11:45:19;;;;;;;9.48;6.00;;;22.70;90.30;;;;;;5035340;28;20030;-72
2021/09/03 11:47:52;;;;;;;10.40;6.70;;;22.80;90.20;;;;;;5041633;28;20036;-72
2021/09/03 11:50:25;;;;;;;9.85;6.25;;;22.80;90.10;;;;;;5031197;28;20033;-72
2021/09/03 11:52:51;;;;;;;11.68;5.78;;;22.90;90.00;;;;;;5033997;28;20025;-74
2021/09/03 11:55:17;;;;;;;8.60;5.85;;;22.90;89.70;;;;;;5037520;28;20551;-71
2021/09/03 11:57:56;;;;;;;9.35;5.43;;;22.90;89.50;;;;;;5035570;28;20033;-73
2021/09/03 12:00:24;;;;;;;11.07;5.70;;;22.90;88.90;;;;;;5039472;28;20025;-72
2021/09/03 12:02:52;;;;;;;8.65;5.55;;;23.00;88.40;;;;;;5033820;28;20389;-74
2021/09/03 12:05:18;;;;;;;8.45;5.68;;;23.00;88.20;;;;;;5030695;28;20466;-73
2021/09/03 12:08:04;;;;;;;9.77;5.70;;;23.10;88.10;;;;;;5037042;28;20516;-72
2021/09/03 12:10:52;;;;;;;8.98;5.00;;;23.10;88.10;;;;;;5032624;28;20132;-73
2021/09/03 12:13:30;;;;;;;9.85;5.72;;;23.10;87.00;;;;;;5039199;28;20033;-73
2021/09/03 12:16:19;;;;;;;7.53;5.13;;;23.10;86.60;;;;;;5032224;28;20037;-73
2021/09/03 12:18:47;;;;;;;8.60;5.53;;;23.20;86.80;;;;;;5036354;28;20505;-72
2021/09/03 12:21:18;;;;;;;7.70;5.45;;;23.20;85.40;;;;;;5038530;28;20029;-73
2021/09/03 12:24:00;;;;;;;8.90;5.70;;;23.20;85.40;;;;;;5030793;28;20486;-73
2021/09/03 12:26:50;;;;;;;7.97;5.03;;;23.20;85.20;;;;;;5032456;28;20127;-73
2021/09/03 12:29:24;;;;;;;6.93;4.82;;;23.30;85.40;;;;;;5033999;28;20524;-73
2021/09/03 12:31:59;;;;;;;8.45;5.07;;;23.30;84.50;;;;;;5034564;28;20041;-73
2021/09/03 12:34:31;;;;;;;;;;;23.30;84.30;;;;;;5036204;28;20064;-74
2021/09/03 12:37:06;;;;;;;7.25;4.53;;;23.40;86.00;;;;;;5042342;28;19919;-73